createdAt,value
2017-11-09T00:00:15.743Z,93.46
2017-11-09T00:01:15.728Z,92.99
2017-11-09T00:02:15.724Z,93.84
2017-11-09T00:03:15.720Z,93.37
2017-11-09T00:04:15.717Z,92.99
2017-11-09T00:05:15.713Z,92.71
2017-11-09T00:06:15.710Z,92.99
2017-11-09T00:07:15.706Z,93.08
2017-11-09T00:08:15.703Z,92.71
2017-11-09T00:09:15.699Z,92.80
2017-11-09T00:10:15.695Z,92.71
2017-11-09T00:11:15.692Z,92.90
2017-11-09T00:12:15.688Z,93.27
2017-11-09T00:13:15.684Z,93.18
2017-11-09T00:14:15.683Z,93.08
2017-11-09T00:15:15.677Z,92.99
2017-11-09T00:16:15.674Z,92.80
2017-11-09T00:17:15.670Z,93.08
2017-11-09T00:18:15.667Z,93.46
2017-11-09T00:19:15.663Z,93.65
2017-11-09T00:20:15.659Z,93.84
2017-11-09T00:21:15.656Z,93.56
2017-11-09T00:22:15.652Z,93.37
2017-11-09T00:23:15.648Z,93.37
2017-11-09T00:24:15.645Z,92.99
2017-11-09T00:25:15.642Z,93.08
2017-11-09T00:26:15.638Z,93.08
2017-11-09T00:27:15.635Z,92.99
2017-11-09T00:28:15.630Z,93.27
2017-11-09T00:29:15.629Z,92.90
2017-11-09T00:30:15.626Z,93.08
2017-11-09T00:31:15.669Z,93.84
2017-11-09T00:32:15.617Z,93.18
2017-11-09T00:33:15.613Z,92.90
2017-11-09T00:34:15.609Z,93.18
2017-11-09T00:35:15.611Z,92.90
2017-11-09T00:36:15.602Z,92.80
2017-11-09T00:37:15.599Z,92.71
2017-11-09T00:38:15.596Z,92.61
2017-11-09T00:39:15.591Z,92.80
2017-11-09T00:40:15.588Z,92.71
2017-11-09T00:41:15.583Z,92.52
2017-11-09T00:42:15.580Z,92.99
2017-11-09T00:43:15.578Z,92.61
2017-11-09T00:44:15.575Z,92.80
2017-11-09T00:45:15.570Z,92.52
2017-11-09T00:46:15.566Z,92.42
2017-11-09T00:47:15.562Z,92.61
2017-11-09T00:48:15.565Z,92.04
2017-11-09T00:49:15.556Z,92.90
2017-11-09T00:50:15.558Z,92.90
2017-11-09T00:51:15.548Z,92.99
2017-11-09T00:52:15.545Z,93.75
2017-11-09T00:53:15.543Z,93.65
2017-11-09T00:54:15.538Z,93.75
2017-11-09T00:55:15.533Z,94.03
2017-11-09T00:56:15.532Z,94.03
2017-11-09T00:57:15.527Z,94.03
2017-11-09T00:58:15.524Z,93.84
2017-11-09T00:59:15.520Z,94.13
2017-11-09T01:00:15.516Z,94.65
2017-11-09T01:01:15.513Z,95.22
2017-11-09T01:02:15.509Z,95.31
2017-11-09T01:03:15.503Z,95.60
2017-11-09T01:04:15.507Z,95.41
2017-11-09T01:05:15.505Z,95.79
2017-11-09T01:06:15.493Z,95.41
2017-11-09T01:07:15.488Z,95.12
2017-11-09T01:08:15.485Z,95.22
2017-11-09T01:09:15.482Z,95.12
2017-11-09T01:10:15.479Z,95.88
2017-11-09T01:11:15.474Z,95.12
2017-11-09T01:12:15.470Z,95.79
2017-11-09T01:13:15.467Z,95.88
2017-11-09T01:14:15.463Z,96.17
2017-11-09T01:15:15.457Z,96.36
2017-11-09T01:16:15.461Z,96.36
2017-11-09T01:17:15.452Z,95.98
2017-11-09T01:18:15.448Z,95.79
2017-11-09T01:19:15.443Z,95.88
2017-11-09T01:20:15.440Z,96.55
2017-11-09T01:21:15.436Z,96.64
2017-11-09T01:22:15.432Z,95.98
2017-11-09T01:23:15.432Z,96.08
2017-11-09T01:24:15.424Z,95.88
2017-11-09T01:25:15.420Z,95.60
2017-11-09T01:26:15.418Z,95.84
2017-11-09T01:27:15.413Z,95.22
2017-11-09T01:28:15.407Z,95.07
2017-11-09T01:29:15.408Z,95.36
2017-11-09T01:30:15.402Z,95.65
2017-11-09T01:31:15.397Z,95.17
2017-11-09T01:32:15.393Z,94.89
2017-11-09T01:33:15.391Z,94.42
2017-11-09T01:34:15.388Z,94.79
2017-11-09T01:35:15.431Z,94.42
2017-11-09T01:36:15.378Z,94.23
2017-11-09T01:37:15.378Z,94.79
2017-11-09T01:38:15.371Z,94.70
2017-11-09T01:39:15.368Z,94.70
2017-11-09T01:40:15.364Z,94.70
2017-11-09T01:41:15.361Z,94.60
2017-11-09T01:42:15.357Z,94.70
2017-11-09T01:43:15.352Z,94.79
2017-11-09T01:44:15.349Z,94.70
2017-11-09T01:45:15.347Z,94.13
2017-11-09T01:46:15.342Z,94.32
2017-11-09T01:47:15.339Z,94.32
2017-11-09T01:48:15.336Z,94.60
2017-11-09T01:49:15.333Z,94.23
2017-11-09T01:50:15.329Z,94.60
2017-11-09T01:51:15.322Z,94.79
2017-11-09T01:52:15.321Z,94.03
2017-11-09T01:53:15.316Z,94.42
2017-11-09T01:54:15.313Z,94.42
2017-11-09T01:55:15.308Z,94.13
2017-11-09T01:56:15.304Z,94.03
2017-11-09T01:57:15.301Z,93.84
2017-11-09T01:58:15.299Z,94.03
2017-11-09T01:59:15.293Z,93.84
2017-11-09T02:00:15.290Z,94.03
2017-11-09T02:01:15.286Z,93.94
2017-11-09T02:02:15.283Z,93.75
2017-11-09T02:03:15.279Z,93.94
2017-11-09T02:04:15.276Z,94.03
2017-11-09T02:05:15.273Z,93.94
2017-11-09T02:06:15.268Z,93.84
2017-11-09T02:07:15.266Z,93.65
2017-11-09T02:08:15.261Z,93.75
2017-11-09T02:09:15.260Z,93.84
2017-11-09T02:10:15.254Z,93.65
2017-11-09T02:11:15.249Z,93.84
2017-11-09T02:12:15.247Z,94.03
2017-11-09T02:13:15.242Z,93.84
2017-11-09T02:14:15.239Z,93.94
2017-11-09T02:15:15.235Z,94.13
2017-11-09T02:16:15.231Z,94.13
2017-11-09T02:17:15.229Z,93.94
2017-11-09T02:18:15.225Z,94.51
2017-11-09T02:19:15.221Z,94.51
2017-11-09T02:20:15.218Z,94.32
2017-11-09T02:21:15.214Z,93.94
2017-11-09T02:22:15.209Z,94.03
2017-11-09T02:23:15.206Z,94.32
2017-11-09T02:24:15.203Z,94.51
2017-11-09T02:25:15.255Z,94.51
2017-11-09T02:26:15.195Z,94.23
2017-11-09T02:27:15.193Z,94.37
2017-11-09T02:28:15.188Z,94.27
2017-11-09T02:29:15.196Z,94.84
2017-11-09T02:30:15.183Z,94.46
2017-11-09T02:31:15.180Z,94.74
2017-11-09T02:32:15.222Z,94.93
2017-11-09T02:33:15.169Z,95.22
2017-11-09T02:34:15.174Z,95.12
2017-11-09T02:35:15.161Z,94.74
2017-11-09T02:36:15.158Z,94.84
2017-11-09T02:37:15.153Z,94.84
2017-11-09T02:38:15.152Z,95.22
2017-11-09T02:39:15.146Z,95.22
2017-11-09T02:40:15.143Z,94.84
2017-11-09T02:41:15.138Z,95.22
2017-11-09T02:42:15.140Z,95.22
2017-11-09T02:43:15.130Z,95.31
2017-11-09T02:44:15.132Z,95.31
2017-11-09T02:45:15.123Z,94.74
2017-11-09T02:46:15.174Z,94.46
2017-11-09T02:47:15.115Z,94.65
2017-11-09T02:48:15.111Z,95.22
2017-11-09T02:49:15.109Z,95.03
2017-11-09T02:50:15.105Z,95.22
2017-11-09T02:51:15.099Z,95.31
2017-11-09T02:52:15.095Z,95.41
2017-11-09T02:53:15.092Z,95.12
2017-11-09T02:54:15.089Z,95.03
2017-11-09T02:55:15.134Z,95.41
2017-11-09T02:56:15.080Z,95.60
2017-11-09T02:57:15.099Z,95.69
2017-11-09T02:58:15.073Z,95.79
2017-11-09T02:59:15.067Z,95.60
2017-11-09T03:00:15.064Z,95.60
2017-11-09T03:01:15.060Z,95.12
2017-11-09T03:02:15.069Z,95.41
2017-11-09T03:03:15.055Z,95.50
2017-11-09T03:04:15.057Z,95.12
2017-11-09T03:05:15.044Z,95.22
2017-11-09T03:06:15.040Z,95.74
2017-11-09T03:07:15.037Z,96.59
2017-11-09T03:08:15.035Z,96.59
2017-11-09T03:09:15.029Z,97.07
2017-11-09T03:10:15.024Z,97.16
2017-11-09T03:11:15.019Z,97.07
2017-11-09T03:12:15.017Z,97.26
2017-11-09T03:13:15.011Z,97.07
2017-11-09T03:14:15.008Z,97.35
2017-11-09T03:15:15.001Z,96.78
2017-11-09T03:16:15.006Z,96.50
2017-11-09T03:17:14.995Z,96.41
2017-11-09T03:18:14.990Z,96.88
2017-11-09T03:19:14.985Z,96.78
2017-11-09T03:20:14.981Z,97.07
2017-11-09T03:21:14.978Z,96.59
2017-11-09T03:22:14.973Z,96.41
2017-11-09T03:23:14.970Z,96.41
2017-11-09T03:24:14.965Z,96.59
2017-11-09T03:25:15.010Z,96.41
2017-11-09T03:26:14.958Z,96.03
2017-11-09T03:27:14.952Z,95.84
2017-11-09T03:28:14.958Z,96.59
2017-11-09T03:29:14.947Z,96.41
2017-11-09T03:30:14.939Z,96.22
2017-11-09T03:31:14.935Z,96.41
2017-11-09T03:32:14.929Z,96.22
2017-11-09T03:33:14.924Z,96.50
2017-11-09T03:34:14.920Z,96.41
2017-11-09T03:35:14.915Z,96.50
2017-11-09T03:36:14.911Z,96.59
2017-11-09T03:37:14.909Z,95.84
2017-11-09T03:38:14.903Z,95.26
2017-11-09T03:39:14.898Z,95.17
2017-11-09T03:40:14.895Z,95.55
2017-11-09T03:41:14.889Z,95.93
2017-11-09T03:42:14.885Z,96.03
2017-11-09T03:43:14.880Z,96.31
2017-11-09T03:44:14.876Z,96.69
2017-11-09T03:45:14.873Z,96.50
2017-11-09T03:46:14.870Z,96.69
2017-11-09T03:47:14.865Z,96.12
2017-11-09T03:48:14.862Z,95.93
2017-11-09T03:49:14.857Z,96.50
2017-11-09T03:50:14.853Z,96.69
2017-11-09T03:51:14.847Z,97.07
2017-11-09T03:52:14.845Z,97.07
2017-11-09T03:53:14.841Z,97.16
2017-11-09T03:54:14.835Z,97.35
2017-11-09T03:55:14.829Z,97.07
2017-11-09T03:56:14.826Z,97.07
2017-11-09T03:57:14.834Z,97.07
2017-11-09T03:58:14.819Z,97.26
2017-11-09T03:59:14.813Z,97.35
2017-11-09T04:00:14.812Z,96.88
2017-11-09T04:01:14.805Z,97.54
2017-11-09T04:02:14.800Z,96.88
2017-11-09T04:03:14.795Z,97.21
2017-11-09T04:04:14.792Z,97.40
2017-11-09T04:05:14.788Z,97.12
2017-11-09T04:06:14.784Z,96.92
2017-11-09T04:07:14.779Z,96.83
2017-11-09T04:08:14.775Z,96.92
2017-11-09T04:09:14.770Z,97.40
2017-11-09T04:10:14.767Z,96.83
2017-11-09T04:11:14.762Z,97.12
2017-11-09T04:12:14.758Z,96.92
2017-11-09T04:13:14.753Z,96.73
2017-11-09T04:14:14.750Z,96.64
2017-11-09T04:15:14.747Z,96.73
2017-11-09T04:16:14.747Z,96.26
2017-11-09T04:17:14.737Z,96.55
2017-11-09T04:18:14.735Z,96.45
2017-11-09T04:19:14.728Z,96.08
2017-11-09T04:20:14.725Z,95.88
2017-11-09T04:21:14.721Z,95.98
2017-11-09T04:22:14.718Z,96.08
2017-11-09T04:23:14.713Z,96.36
2017-11-09T04:24:14.708Z,96.26
2017-11-09T04:25:14.704Z,96.83
2017-11-09T04:26:14.702Z,96.26
2017-11-09T04:27:14.696Z,96.17
2017-11-09T04:28:14.693Z,96.45
2017-11-09T04:29:14.688Z,96.73
2017-11-09T04:30:14.685Z,96.83
2017-11-09T04:31:14.680Z,96.64
2017-11-09T04:32:14.675Z,96.64
2017-11-09T04:33:14.672Z,96.08
2017-11-09T04:34:14.669Z,95.88
2017-11-09T04:35:14.664Z,96.08
2017-11-09T04:36:14.661Z,96.45
2017-11-09T04:37:14.657Z,96.45
2017-11-09T04:38:14.653Z,96.45
2017-11-09T04:39:14.649Z,96.36
2017-11-09T04:40:14.644Z,95.98
2017-11-09T04:41:14.640Z,95.60
2017-11-09T04:42:14.637Z,95.12
2017-11-09T04:43:14.640Z,95.79
2017-11-09T04:44:14.629Z,95.88
2017-11-09T04:45:14.625Z,96.17
2017-11-09T04:46:14.621Z,96.64
2017-11-09T04:47:14.617Z,96.36
2017-11-09T04:48:14.613Z,95.69
2017-11-09T04:49:14.608Z,95.41
2017-11-09T04:50:14.605Z,95.41
2017-11-09T04:51:14.600Z,95.79
2017-11-09T04:52:14.598Z,95.50
2017-11-09T04:53:14.594Z,95.69
2017-11-09T04:54:14.589Z,95.31
2017-11-09T04:55:14.585Z,95.22
2017-11-09T04:56:14.581Z,95.69
2017-11-09T04:57:14.577Z,95.41
2017-11-09T04:58:14.574Z,96.08
2017-11-09T04:59:14.618Z,95.98
2017-11-09T05:00:14.566Z,95.88
2017-11-09T05:01:14.563Z,96.17
2017-11-09T05:02:14.569Z,96.55
2017-11-09T05:03:14.554Z,96.73
2017-11-09T05:04:14.550Z,97.02
2017-11-09T05:05:14.549Z,97.02
2017-11-09T05:06:14.545Z,97.02
2017-11-09T05:07:14.538Z,95.69
2017-11-09T05:08:14.585Z,95.88
2017-11-09T05:09:14.532Z,95.69
2017-11-09T05:10:14.527Z,96.45
2017-11-09T05:11:14.521Z,96.73
2017-11-09T05:12:14.519Z,96.97
2017-11-09T05:13:14.514Z,96.83
2017-11-09T05:14:14.510Z,96.26
2017-11-09T05:15:14.505Z,96.50
2017-11-09T05:16:14.503Z,96.31
2017-11-09T05:17:14.497Z,96.41
2017-11-09T05:18:14.494Z,96.78
2017-11-09T05:19:14.488Z,96.59
2017-11-09T05:20:14.484Z,97.16
2017-11-09T05:21:14.479Z,97.54
2017-11-09T05:22:14.479Z,97.54
2017-11-09T05:23:14.472Z,98.30
2017-11-09T05:24:14.469Z,97.83
2017-11-09T05:25:14.463Z,97.64
2017-11-09T05:26:14.460Z,97.54
2017-11-09T05:27:14.462Z,97.88
2017-11-09T05:28:14.451Z,97.50
2017-11-09T05:29:14.447Z,97.02
2017-11-09T05:30:14.443Z,97.40
2017-11-09T05:31:14.438Z,97.31
2017-11-09T05:32:14.435Z,96.83
2017-11-09T05:33:14.431Z,97.12
2017-11-09T05:34:14.436Z,96.92
2017-11-09T05:35:14.722Z,96.64
2017-11-09T05:36:14.417Z,96.64
2017-11-09T05:37:14.413Z,96.45
2017-11-09T05:38:14.409Z,96.36
2017-11-09T05:39:14.406Z,96.36
2017-11-09T05:40:14.400Z,96.08
2017-11-09T05:41:14.399Z,96.55
2017-11-09T05:42:14.398Z,96.55
2017-11-09T05:43:14.389Z,96.26
2017-11-09T05:44:14.384Z,96.73
2017-11-09T05:45:14.380Z,96.92
2017-11-09T05:46:14.377Z,96.83
2017-11-09T05:47:14.374Z,96.55
2017-11-09T05:48:14.369Z,96.26
2017-11-09T05:49:14.415Z,96.92
2017-11-09T05:50:14.363Z,96.73
2017-11-09T05:51:14.356Z,96.83
2017-11-09T05:52:14.352Z,96.73
2017-11-09T05:53:14.354Z,96.83
2017-11-09T05:54:14.365Z,96.45
2017-11-09T05:55:14.341Z,95.79
2017-11-09T05:56:14.339Z,94.27
2017-11-09T05:57:14.333Z,93.89
2017-11-09T05:58:14.329Z,94.18
2017-11-09T05:59:14.329Z,95.41
2017-11-09T06:00:14.375Z,95.03
2017-11-09T06:01:14.316Z,95.03
2017-11-09T06:02:14.313Z,94.84
2017-11-09T06:03:14.309Z,94.65
2017-11-09T06:04:14.307Z,94.84
2017-11-09T06:05:14.304Z,94.84
2017-11-09T06:06:14.298Z,94.51
2017-11-09T06:07:14.292Z,94.51
2017-11-09T06:08:14.288Z,94.60
2017-11-09T06:09:14.294Z,94.70
2017-11-09T06:10:14.289Z,95.55
2017-11-09T06:11:14.275Z,95.74
2017-11-09T06:12:14.271Z,96.41
2017-11-09T06:13:14.268Z,96.69
2017-11-09T06:14:14.265Z,96.69
2017-11-09T06:15:14.259Z,96.78
2017-11-09T06:16:14.256Z,97.07
2017-11-09T06:17:14.252Z,96.78
2017-11-09T06:18:14.247Z,96.69
2017-11-09T06:19:14.243Z,96.97
2017-11-09T06:20:14.238Z,96.88
2017-11-09T06:21:14.235Z,96.88
2017-11-09T06:22:14.230Z,96.69
2017-11-09T06:23:14.226Z,96.59
2017-11-09T06:24:14.221Z,96.78
2017-11-09T06:25:14.216Z,97.35
2017-11-09T06:26:14.213Z,97.26
2017-11-09T06:27:14.209Z,97.07
2017-11-09T06:28:14.204Z,97.16
2017-11-09T06:29:14.202Z,97.45
2017-11-09T06:30:14.247Z,97.26
2017-11-09T06:31:14.192Z,97.16
2017-11-09T06:32:14.190Z,97.45
2017-11-09T06:33:14.184Z,97.35
2017-11-09T06:34:14.179Z,97.35
2017-11-09T06:35:14.175Z,97.26
2017-11-09T06:36:14.171Z,97.64
2017-11-09T06:37:14.167Z,98.11
2017-11-09T06:38:14.164Z,98.30
2017-11-09T06:39:14.158Z,98.30
2017-11-09T06:40:14.156Z,98.49
2017-11-09T06:41:14.149Z,98.21
2017-11-09T06:42:14.145Z,97.59
2017-11-09T06:43:14.142Z,97.35
2017-11-09T06:44:14.137Z,97.31
2017-11-09T06:45:14.132Z,96.83
2017-11-09T06:46:14.128Z,97.88
2017-11-09T06:47:14.126Z,97.40
2017-11-09T06:48:14.120Z,97.31
2017-11-09T06:49:14.115Z,96.92
2017-11-09T06:50:14.112Z,96.45
2017-11-09T06:51:14.158Z,96.45
2017-11-09T06:52:14.105Z,96.26
2017-11-09T06:53:14.099Z,96.45
2017-11-09T06:54:14.094Z,96.26
2017-11-09T06:55:14.092Z,96.17
2017-11-09T06:56:14.090Z,96.17
2017-11-09T06:57:14.083Z,96.55
2017-11-09T06:58:14.083Z,96.45
2017-11-09T06:59:14.075Z,96.36
2017-11-09T07:00:14.070Z,96.26
2017-11-09T07:01:14.068Z,96.08
2017-11-09T07:02:14.064Z,95.88
2017-11-09T07:03:14.058Z,96.36
2017-11-09T07:04:14.055Z,96.45
2017-11-09T07:05:14.052Z,96.64
2017-11-09T07:06:14.047Z,95.98
2017-11-09T07:07:14.043Z,95.79
2017-11-09T07:08:14.041Z,95.12
2017-11-09T07:09:14.036Z,95.41
2017-11-09T07:10:14.033Z,94.84
2017-11-09T07:11:14.031Z,95.03
2017-11-09T07:12:14.023Z,95.31
2017-11-09T07:13:14.021Z,95.79
2017-11-09T07:14:14.016Z,96.08
2017-11-09T07:15:14.010Z,96.08
2017-11-09T07:16:14.009Z,95.88
2017-11-09T07:17:14.003Z,95.88
2017-11-09T07:18:14.002Z,95.98
2017-11-09T07:19:13.996Z,96.36
2017-11-09T07:20:13.990Z,96.26
2017-11-09T07:21:13.987Z,96.64
2017-11-09T07:22:13.983Z,96.55
2017-11-09T07:23:13.979Z,96.08
2017-11-09T07:24:13.976Z,96.36
2017-11-09T07:25:13.971Z,96.17
2017-11-09T07:26:13.970Z,96.45
2017-11-09T07:27:13.970Z,96.36
2017-11-09T07:28:13.961Z,95.69
2017-11-09T07:29:13.957Z,95.98
2017-11-09T07:30:13.953Z,96.17
2017-11-09T07:31:13.999Z,96.08
2017-11-09T07:32:13.944Z,96.17
2017-11-09T07:33:13.941Z,96.17
2017-11-09T07:34:13.938Z,96.64
2017-11-09T07:35:13.933Z,96.08
2017-11-09T07:36:13.929Z,96.45
2017-11-09T07:37:13.925Z,96.64
2017-11-09T07:38:13.921Z,95.88
2017-11-09T07:39:13.917Z,95.12
2017-11-09T07:40:13.913Z,95.22
2017-11-09T07:41:13.910Z,95.31
2017-11-09T07:42:13.908Z,95.60
2017-11-09T07:43:13.902Z,95.03
2017-11-09T07:44:13.898Z,95.79
2017-11-09T07:45:13.894Z,95.69
2017-11-09T07:46:13.895Z,96.73
2017-11-09T07:47:13.896Z,96.45
2017-11-09T07:48:13.883Z,96.45
2017-11-09T07:49:13.879Z,96.55
2017-11-09T07:50:13.876Z,95.79
2017-11-09T07:51:13.869Z,96.08
2017-11-09T07:52:13.866Z,96.08
2017-11-09T07:53:13.871Z,96.83
2017-11-09T07:54:13.860Z,96.55
2017-11-09T07:55:13.856Z,95.69
2017-11-09T07:56:13.850Z,95.60
2017-11-09T07:57:13.848Z,95.88
2017-11-09T07:58:13.858Z,95.88
2017-11-09T07:59:13.839Z,96.17
2017-11-09T08:00:13.836Z,96.36
2017-11-09T08:01:13.832Z,96.55
2017-11-09T08:02:13.829Z,96.45
2017-11-09T08:03:13.823Z,95.88
2017-11-09T08:04:13.818Z,96.36
2017-11-09T08:05:13.833Z,96.55
2017-11-09T08:06:13.812Z,96.55
2017-11-09T08:07:13.839Z,96.73
2017-11-09T08:08:13.810Z,96.36
2017-11-09T08:09:13.800Z,96.55
2017-11-09T08:10:13.796Z,96.45
2017-11-09T08:11:13.791Z,96.36
2017-11-09T08:12:13.786Z,96.08
2017-11-09T08:13:13.784Z,96.17
2017-11-09T08:14:13.783Z,96.36
2017-11-09T08:15:13.774Z,96.08
2017-11-09T08:16:13.770Z,96.55
2017-11-09T08:17:13.765Z,96.41
2017-11-09T08:18:13.774Z,96.08
2017-11-09T08:19:13.758Z,95.17
2017-11-09T08:20:13.809Z,94.79
2017-11-09T08:21:13.757Z,95.27
2017-11-09T08:22:13.746Z,94.74
2017-11-09T08:23:13.741Z,94.89
2017-11-09T08:24:13.738Z,94.70
2017-11-09T08:25:13.734Z,95.27
2017-11-09T08:26:13.732Z,95.27
2017-11-09T08:27:13.727Z,94.98
2017-11-09T08:28:13.722Z,94.60
2017-11-09T08:29:13.718Z,94.23
2017-11-09T08:30:13.714Z,94.03
2017-11-09T08:31:13.710Z,93.56
2017-11-09T08:32:13.706Z,93.84
2017-11-09T08:33:13.703Z,94.03
2017-11-09T08:34:13.701Z,94.03
2017-11-09T08:35:13.700Z,93.84
2017-11-09T08:36:13.692Z,93.84
2017-11-09T08:37:13.688Z,93.94
2017-11-09T08:38:13.686Z,94.13
2017-11-09T08:39:13.681Z,94.79
2017-11-09T08:40:13.677Z,93.46
2017-11-09T08:41:13.673Z,92.80
2017-11-09T08:42:13.670Z,92.99
2017-11-09T08:43:13.665Z,94.32
2017-11-09T08:44:13.663Z,93.94
2017-11-09T08:45:13.658Z,93.27
2017-11-09T08:46:13.655Z,92.99
2017-11-09T08:47:13.652Z,93.27
2017-11-09T08:48:13.649Z,93.46
2017-11-09T08:49:13.644Z,92.80
2017-11-09T08:50:13.640Z,93.94
2017-11-09T08:51:13.638Z,93.94
2017-11-09T08:52:13.633Z,93.75
2017-11-09T08:53:13.630Z,94.03
2017-11-09T08:54:13.625Z,94.32
2017-11-09T08:55:13.623Z,94.42
2017-11-09T08:56:13.619Z,94.51
2017-11-09T08:57:13.615Z,93.75
2017-11-09T08:58:13.612Z,93.94
2017-11-09T08:59:13.608Z,93.84
2017-11-09T09:00:13.604Z,93.84
2017-11-09T09:01:13.601Z,93.08
2017-11-09T09:02:13.598Z,93.84
2017-11-09T09:03:13.593Z,92.90
2017-11-09T09:04:13.599Z,92.71
2017-11-09T09:05:13.586Z,92.90
2017-11-09T09:06:13.583Z,92.61
2017-11-09T09:07:13.580Z,92.94
2017-11-09T09:08:13.576Z,92.61
2017-11-09T09:09:13.574Z,92.37
2017-11-09T09:10:13.620Z,91.61
2017-11-09T09:11:13.566Z,91.71
2017-11-09T09:12:13.564Z,92.42
2017-11-09T09:13:13.560Z,92.14
2017-11-09T09:14:13.557Z,92.23
2017-11-09T09:15:13.553Z,92.09
2017-11-09T09:16:13.551Z,91.80
2017-11-09T09:17:13.545Z,91.52
2017-11-09T09:18:13.544Z,91.42
2017-11-09T09:19:13.540Z,91.61
2017-11-09T09:20:13.537Z,91.52
2017-11-09T09:21:13.532Z,92.37
2017-11-09T09:22:13.530Z,92.94
2017-11-09T09:23:13.526Z,93.04
2017-11-09T09:24:13.525Z,92.28
2017-11-09T09:25:13.521Z,91.61
2017-11-09T09:26:13.517Z,91.61
2017-11-09T09:27:13.515Z,91.61
2017-11-09T09:28:13.510Z,91.33
2017-11-09T09:29:13.508Z,91.33
2017-11-09T09:30:13.504Z,91.52
2017-11-09T09:31:13.501Z,91.24
2017-11-09T09:32:13.497Z,91.61
2017-11-09T09:33:13.494Z,91.89
2017-11-09T09:34:13.542Z,91.89
2017-11-09T09:35:13.489Z,91.99
2017-11-09T09:36:13.485Z,91.61
2017-11-09T09:37:13.486Z,91.99
2017-11-09T09:38:13.479Z,91.61
2017-11-09T09:39:13.525Z,91.71
2017-11-09T09:40:13.473Z,91.89
2017-11-09T09:41:13.469Z,92.47
2017-11-09T09:42:13.467Z,93.23
2017-11-09T09:43:13.462Z,92.47
2017-11-09T09:44:13.460Z,91.61
2017-11-09T09:45:13.457Z,91.71
2017-11-09T09:46:13.454Z,91.89
2017-11-09T09:47:13.450Z,92.18
2017-11-09T09:48:13.447Z,92.56
2017-11-09T09:49:13.443Z,92.47
2017-11-09T09:50:13.441Z,92.18
2017-11-09T09:51:13.439Z,92.09
2017-11-09T09:52:13.434Z,92.09
2017-11-09T09:53:13.432Z,91.71
2017-11-09T09:54:13.429Z,91.71
2017-11-09T09:55:13.426Z,91.71
2017-11-09T09:56:13.422Z,91.04
2017-11-09T09:57:13.419Z,91.33
2017-11-09T09:58:13.417Z,91.42
2017-11-09T09:59:13.413Z,91.52
2017-11-09T10:00:13.409Z,91.24
2017-11-09T10:01:13.407Z,91.24
2017-11-09T10:02:13.405Z,91.24
2017-11-09T10:03:13.401Z,90.76
2017-11-09T10:04:13.448Z,90.66
2017-11-09T10:05:13.411Z,91.14
2017-11-09T10:06:13.394Z,90.19
2017-11-09T10:07:13.389Z,90.57
2017-11-09T10:08:13.392Z,91.52
2017-11-09T10:09:13.384Z,90.76
2017-11-09T10:10:13.380Z,90.66
2017-11-09T10:11:13.376Z,91.33
2017-11-09T10:12:13.374Z,92.47
2017-11-09T10:13:13.371Z,92.18
2017-11-09T10:14:13.370Z,91.80
2017-11-09T10:15:13.366Z,91.89
2017-11-09T10:16:13.363Z,92.09
2017-11-09T10:17:13.377Z,92.18
2017-11-09T10:18:13.357Z,91.80
2017-11-09T10:19:13.353Z,91.89
2017-11-09T10:20:13.355Z,91.80
2017-11-09T10:21:13.348Z,91.04
2017-11-09T10:22:13.346Z,90.85
2017-11-09T10:23:13.340Z,91.71
2017-11-09T10:24:13.338Z,91.52
2017-11-09T10:25:13.334Z,90.38
2017-11-09T10:26:13.332Z,90.85
2017-11-09T10:27:13.337Z,91.04
2017-11-09T10:28:13.326Z,90.47
2017-11-09T10:29:13.324Z,90.38
2017-11-09T10:30:13.320Z,90.19
2017-11-09T10:31:13.316Z,89.53
2017-11-09T10:32:13.313Z,89.90
2017-11-09T10:33:13.312Z,90.57
2017-11-09T10:34:13.309Z,90.85
2017-11-09T10:35:13.305Z,90.47
2017-11-09T10:36:13.304Z,90.47
2017-11-09T10:37:13.299Z,89.72
2017-11-09T10:38:13.296Z,89.53
2017-11-09T10:39:13.293Z,89.53
2017-11-09T10:40:13.291Z,88.86
2017-11-09T10:41:13.338Z,89.90
2017-11-09T10:42:13.284Z,90.57
2017-11-09T10:43:13.280Z,90.57
2017-11-09T10:44:13.278Z,91.61
2017-11-09T10:45:13.275Z,91.52
2017-11-09T10:46:13.272Z,91.14
2017-11-09T10:47:13.272Z,90.76
2017-11-09T10:48:13.266Z,90.66
2017-11-09T10:49:13.263Z,90.85
2017-11-09T10:50:13.261Z,91.24
2017-11-09T10:51:13.257Z,90.00
2017-11-09T10:52:13.253Z,89.62
2017-11-09T10:53:13.252Z,89.33
2017-11-09T10:54:13.250Z,89.33
2017-11-09T10:55:13.246Z,88.76
2017-11-09T10:56:13.243Z,88.48
2017-11-09T10:57:13.240Z,87.53
2017-11-09T10:58:13.237Z,88.01
2017-11-09T10:59:13.233Z,88.48
2017-11-09T11:00:13.232Z,88.67
2017-11-09T11:01:13.229Z,89.05
2017-11-09T11:02:13.226Z,89.14
2017-11-09T11:03:13.232Z,89.05
2017-11-09T11:04:13.221Z,88.57
2017-11-09T11:05:13.217Z,89.00
2017-11-09T11:06:13.215Z,88.34
2017-11-09T11:07:13.210Z,88.90
2017-11-09T11:08:13.224Z,88.34
2017-11-09T11:09:13.206Z,89.00
2017-11-09T11:10:13.205Z,89.19
2017-11-09T11:11:13.200Z,89.00
2017-11-09T11:12:13.197Z,88.43
2017-11-09T11:13:13.194Z,89.09
2017-11-09T11:14:13.193Z,88.81
2017-11-09T11:15:13.188Z,88.86
2017-11-09T11:16:13.187Z,89.05
2017-11-09T11:17:13.196Z,88.67
2017-11-09T11:18:13.181Z,88.39
2017-11-09T11:19:13.229Z,88.48
2017-11-09T11:20:13.176Z,88.95
2017-11-09T11:21:13.173Z,89.14
2017-11-09T11:22:13.170Z,89.05
2017-11-09T11:23:13.167Z,89.00
2017-11-09T11:24:13.164Z,89.19
2017-11-09T11:25:13.163Z,89.09
2017-11-09T11:26:13.163Z,88.15
2017-11-09T11:27:13.156Z,87.10
2017-11-09T11:28:13.153Z,86.82
2017-11-09T11:29:13.151Z,86.34
2017-11-09T11:30:13.150Z,85.58
2017-11-09T11:31:13.147Z,86.43
2017-11-09T11:32:13.143Z,85.86
2017-11-09T11:33:13.142Z,85.58
2017-11-09T11:34:13.138Z,86.53
2017-11-09T11:35:13.140Z,86.82
2017-11-09T11:36:13.133Z,86.72
2017-11-09T11:37:13.133Z,86.53
2017-11-09T11:38:13.127Z,86.15
2017-11-09T11:39:13.125Z,86.34
2017-11-09T11:40:13.122Z,86.34
2017-11-09T11:41:13.119Z,86.82
2017-11-09T11:42:13.118Z,86.63
2017-11-09T11:43:13.115Z,86.15
2017-11-09T11:44:13.113Z,86.82
2017-11-09T11:45:13.109Z,86.72
2017-11-09T11:46:13.107Z,87.01
2017-11-09T11:47:13.104Z,86.82
2017-11-09T11:48:13.103Z,86.82
2017-11-09T11:49:13.099Z,86.82
2017-11-09T11:50:13.099Z,85.77
2017-11-09T11:51:13.092Z,86.15
2017-11-09T11:52:13.092Z,86.63
2017-11-09T11:53:13.089Z,86.63
2017-11-09T11:54:13.088Z,86.15
2017-11-09T11:55:13.085Z,85.58
2017-11-09T11:56:13.081Z,86.15
2017-11-09T11:57:13.079Z,85.77
2017-11-09T11:58:13.077Z,85.96
2017-11-09T11:59:13.074Z,85.30
2017-11-09T12:00:13.071Z,85.01
2017-11-09T12:01:13.070Z,84.86
2017-11-09T12:02:13.067Z,85.62
2017-11-09T12:03:13.064Z,84.86
2017-11-09T12:04:13.061Z,84.29
2017-11-09T12:05:13.061Z,85.34
2017-11-09T12:06:13.057Z,85.58
2017-11-09T12:07:13.054Z,85.20
2017-11-09T12:08:13.053Z,85.39
2017-11-09T12:09:13.050Z,86.15
2017-11-09T12:10:13.049Z,86.15
2017-11-09T12:11:13.046Z,85.30
2017-11-09T12:12:13.045Z,84.72
2017-11-09T12:13:13.042Z,85.86
2017-11-09T12:14:13.037Z,85.39
2017-11-09T12:15:13.034Z,86.15
2017-11-09T12:16:13.037Z,85.77
2017-11-09T12:17:13.032Z,86.05
2017-11-09T12:18:13.029Z,85.96
2017-11-09T12:19:13.026Z,84.91
2017-11-09T12:20:13.022Z,85.77
2017-11-09T12:21:13.022Z,84.72
2017-11-09T12:22:13.018Z,85.01
2017-11-09T12:23:13.016Z,85.30
2017-11-09T12:24:13.014Z,84.91
2017-11-09T12:25:13.064Z,85.30
2017-11-09T12:26:13.011Z,85.68
2017-11-09T12:27:13.008Z,86.15
2017-11-09T12:28:13.006Z,86.43
2017-11-09T12:29:13.003Z,85.58
2017-11-09T12:30:13.000Z,85.20
2017-11-09T12:31:12.997Z,85.20
2017-11-09T12:32:12.994Z,85.11
2017-11-09T12:33:12.992Z,85.30
2017-11-09T12:34:12.997Z,85.30
2017-11-09T12:35:12.988Z,85.68
2017-11-09T12:36:12.986Z,85.86
2017-11-09T12:37:12.983Z,86.24
2017-11-09T12:38:12.982Z,86.34
2017-11-09T12:39:12.984Z,86.34
2017-11-09T12:40:12.976Z,86.24
2017-11-09T12:41:12.974Z,86.72
2017-11-09T12:42:13.021Z,86.68
2017-11-09T12:43:12.968Z,86.87
2017-11-09T12:44:12.966Z,87.72
2017-11-09T12:45:13.011Z,87.91
2017-11-09T12:46:12.961Z,87.53
2017-11-09T12:47:12.956Z,87.76
2017-11-09T12:48:12.955Z,85.30
2017-11-09T12:49:12.958Z,85.05
2017-11-09T12:50:12.950Z,84.25
2017-11-09T12:51:12.945Z,84.06
2017-11-09T12:52:12.944Z,83.87